createdAt,value
2019-03-05T00:01:37.379Z,88.53
2019-03-05T00:04:06.699Z,89.31
2019-03-05T00:06:36.017Z,89.03
2019-03-05T00:09:10.492Z,89.28
2019-03-05T00:11:39.834Z,89.50
2019-03-05T00:14:09.090Z,89.29
2019-03-05T00:16:38.652Z,89.60
2019-03-05T00:19:08.003Z,89.28
2019-03-05T00:21:37.323Z,89.64
2019-03-05T00:24:44.606Z,89.40
2019-03-05T00:27:14.011Z,89.71
2019-03-05T00:30:20.052Z,89.13
2019-03-05T00:32:52.102Z,89.04
2019-03-05T00:35:30.557Z,88.57
2019-03-05T00:38:45.144Z,89.26
2019-03-05T00:41:24.446Z,89.27
2019-03-05T00:44:33.630Z,89.34
2019-03-05T00:47:53.034Z,89.57
2019-03-05T00:50:47.050Z,89.89
2019-03-05T00:53:26.175Z,89.92
2019-03-05T00:56:12.817Z,89.40
2019-03-05T00:59:01.786Z,89.83
2019-03-05T01:02:12.385Z,89.64
2019-03-05T01:05:30.884Z,89.71
2019-03-05T01:08:00.427Z,90.22
2019-03-05T01:10:29.758Z,90.13
2019-03-05T01:12:59.542Z,90.05
2019-03-05T01:15:28.818Z,89.48
2019-03-05T01:17:58.162Z,89.99
2019-03-05T01:20:27.998Z,90.06
2019-03-05T01:22:57.267Z,89.72
2019-03-05T01:25:34.118Z,89.50
2019-03-05T01:28:03.515Z,89.57
2019-03-05T01:30:59.760Z,89.21
2019-03-05T01:33:32.372Z,89.21
2019-03-05T01:36:06.672Z,89.65
2019-03-05T01:38:45.626Z,89.46
2019-03-05T01:41:15.185Z,89.56
2019-03-05T01:43:44.511Z,89.21
2019-03-05T01:46:13.799Z,89.57
2019-03-05T01:48:43.337Z,89.60
2019-03-05T01:51:12.599Z,89.65
2019-03-05T01:53:41.922Z,89.92
2019-03-05T01:56:11.387Z,89.74
2019-03-05T01:58:40.671Z,89.29
2019-03-05T02:01:10.002Z,89.93
2019-03-05T02:03:39.495Z,90.31
2019-03-05T02:06:08.735Z,90.28
2019-03-05T02:08:38.049Z,90.34
2019-03-05T02:11:07.564Z,90.65
2019-03-05T02:13:36.876Z,90.52
2019-03-05T02:16:06.166Z,90.02
2019-03-05T02:18:35.771Z,90.56
2019-03-05T02:21:05.070Z,90.25
2019-03-05T02:23:47.467Z,90.57
2019-03-05T02:27:12.579Z,90.34
2019-03-05T02:30:06.546Z,90.31
2019-03-05T02:33:31.639Z,90.16
2019-03-05T02:36:15.897Z,90.60
2019-03-05T02:39:30.882Z,90.96
2019-03-05T02:42:28.436Z,90.25
2019-03-05T02:45:31.544Z,90.78
2019-03-05T02:48:24.235Z,90.40
2019-03-05T02:51:37.160Z,90.70
2019-03-05T02:54:34.543Z,90.65
2019-03-05T02:57:08.769Z,89.93
2019-03-05T02:59:38.739Z,90.08
2019-03-05T03:02:27.055Z,90.06
2019-03-05T03:05:27.658Z,89.70
2019-03-05T03:07:56.981Z,89.94
2019-03-05T03:10:26.735Z,89.34
2019-03-05T03:12:56.410Z,90.10
2019-03-05T03:15:25.681Z,90.47
2019-03-05T03:17:54.995Z,90.61
2019-03-05T03:20:24.821Z,91.28
2019-03-05T03:22:54.139Z,90.73
2019-03-05T03:25:24.222Z,91.10
2019-03-05T03:27:53.883Z,90.91
2019-03-05T03:30:24.631Z,90.84
2019-03-05T03:32:53.982Z,90.67
2019-03-05T03:35:23.368Z,90.99
2019-03-05T03:37:52.606Z,90.91
2019-03-05T03:40:25.488Z,91.04
2019-03-05T03:42:55.345Z,91.29
2019-03-05T03:45:27.836Z,91.39
2019-03-05T03:47:57.181Z,91.20
2019-03-05T03:50:26.471Z,91.33
2019-03-05T03:52:55.820Z,91.70
2019-03-05T03:55:25.145Z,91.94
2019-03-05T03:57:54.443Z,92.31
2019-03-05T04:00:25.019Z,92.25
2019-03-05T04:02:55.006Z,92.44
2019-03-05T04:05:24.323Z,92.13
2019-03-05T04:07:53.639Z,90.53
2019-03-05T04:10:23.051Z,90.83
2019-03-05T04:12:52.273Z,89.78
2019-03-05T04:15:22.172Z,89.74
2019-03-05T04:17:51.598Z,89.89
2019-03-05T04:20:35.309Z,90.28
2019-03-05T04:23:04.632Z,89.89
2019-03-05T04:25:33.913Z,89.58
2019-03-05T04:28:03.301Z,89.25
2019-03-05T04:30:32.834Z,89.34
2019-03-05T04:33:02.130Z,89.53
2019-03-05T04:35:31.503Z,89.66
2019-03-05T04:38:00.778Z,88.60
2019-03-05T04:40:30.058Z,88.63
2019-03-05T04:42:59.356Z,89.53
2019-03-05T04:45:39.447Z,89.66
2019-03-05T04:48:09.118Z,88.77
2019-03-05T04:50:43.068Z,89.33
2019-03-05T04:53:12.501Z,89.34
2019-03-05T04:55:41.775Z,88.96
2019-03-05T04:58:11.110Z,88.60
2019-03-05T05:00:40.502Z,88.21
2019-03-05T05:03:09.791Z,88.67
2019-03-05T05:05:39.193Z,88.83
2019-03-05T05:08:08.492Z,88.85
2019-03-05T05:10:37.774Z,88.02
2019-03-05T05:13:07.111Z,88.55
2019-03-05T05:15:36.431Z,88.42
2019-03-05T05:18:05.900Z,88.39
2019-03-05T05:20:35.180Z,88.18
2019-03-05T05:23:04.565Z,88.56
2019-03-05T05:25:33.845Z,88.06
2019-03-05T05:28:03.124Z,89.01
2019-03-05T05:30:39.406Z,88.16
2019-03-05T05:33:08.859Z,87.77
2019-03-05T05:35:38.174Z,88.34
2019-03-05T05:38:07.556Z,88.01
2019-03-05T05:40:38.444Z,87.20
2019-03-05T05:43:15.624Z,86.51
2019-03-05T05:45:49.357Z,86.42
2019-03-05T05:48:18.921Z,87.02
2019-03-05T05:50:48.263Z,86.81
2019-03-05T05:53:17.513Z,87.44
2019-03-05T05:55:46.917Z,88.05
2019-03-05T05:58:16.242Z,88.07
2019-03-05T06:00:47.698Z,87.28
2019-03-05T06:03:17.040Z,87.45
2019-03-05T06:05:46.288Z,87.19
2019-03-05T06:08:15.585Z,86.95
2019-03-05T06:10:44.999Z,87.60
2019-03-05T06:13:14.341Z,86.81
2019-03-05T06:15:43.614Z,87.86
2019-03-05T06:18:13.077Z,87.37
2019-03-05T06:20:42.834Z,88.07
2019-03-05T06:23:12.139Z,88.02
2019-03-05T06:25:41.667Z,87.49
2019-03-05T06:28:11.008Z,87.95
2019-03-05T06:30:40.356Z,87.89
2019-03-05T06:33:09.620Z,87.36
2019-03-05T06:35:38.983Z,86.99
2019-03-05T06:38:08.315Z,86.85
2019-03-05T06:40:37.688Z,86.08
2019-03-05T06:43:06.985Z,86.33
2019-03-05T06:45:36.282Z,86.29
2019-03-05T06:48:05.830Z,86.64
2019-03-05T06:50:35.134Z,86.94
2019-03-05T06:53:04.435Z,86.99
2019-03-05T06:55:33.785Z,86.88
2019-03-05T06:58:03.058Z,87.18
2019-03-05T07:00:33.682Z,86.60
2019-03-05T07:03:02.995Z,86.77
2019-03-05T07:06:07.587Z,86.60
2019-03-05T07:08:38.899Z,86.42
2019-03-05T07:11:53.401Z,86.93
2019-03-05T07:14:31.606Z,86.78
2019-03-05T07:17:31.727Z,87.06
2019-03-05T07:20:32.204Z,87.18
2019-03-05T07:23:19.314Z,87.61
2019-03-05T07:25:48.815Z,86.68
2019-03-05T07:28:18.108Z,87.11
2019-03-05T07:30:47.380Z,87.07
2019-03-05T07:33:17.015Z,88.07
2019-03-05T07:35:46.485Z,87.56
2019-03-05T07:38:15.837Z,87.53
2019-03-05T07:40:45.310Z,87.56
2019-03-05T07:43:14.578Z,85.70
2019-03-05T07:45:43.889Z,86.76
2019-03-05T07:48:13.314Z,85.86
2019-03-05T07:50:42.710Z,86.83
2019-03-05T07:53:12.078Z,86.74
2019-03-05T07:55:41.504Z,87.31
2019-03-05T07:58:10.905Z,86.59
2019-03-05T08:00:40.259Z,86.74
2019-03-05T08:03:09.763Z,86.51
2019-03-05T08:05:39.132Z,86.77
2019-03-05T08:08:44.028Z,85.98
2019-03-05T08:11:13.784Z,86.86
2019-03-05T08:14:34.551Z,86.67
2019-03-05T08:17:03.920Z,86.45
2019-03-05T08:19:33.342Z,85.55
2019-03-05T08:22:03.283Z,85.63
2019-03-05T08:24:32.641Z,86.35
2019-03-05T08:27:02.004Z,86.22
2019-03-05T08:29:31.659Z,85.55
2019-03-05T08:32:01.083Z,84.93
2019-03-05T08:34:30.451Z,85.52
2019-03-05T08:37:00.243Z,85.21
2019-03-05T08:39:29.603Z,84.36
2019-03-05T08:41:58.940Z,85.03
2019-03-05T08:44:28.482Z,84.58
2019-03-05T08:46:57.827Z,84.17
2019-03-05T08:49:27.171Z,85.31
2019-03-05T08:51:56.712Z,85.12
2019-03-05T08:54:26.046Z,84.36
2019-03-05T08:56:55.385Z,85.05
2019-03-05T08:59:25.069Z,85.36
2019-03-05T09:01:54.415Z,84.60
2019-03-05T09:04:23.812Z,84.62
2019-03-05T09:06:53.452Z,85.45
2019-03-05T09:09:22.803Z,85.81
2019-03-05T09:11:52.160Z,85.42
2019-03-05T09:14:21.784Z,85.64
2019-03-05T09:16:51.139Z,85.29
2019-03-05T09:19:20.538Z,85.36
2019-03-05T09:21:50.014Z,84.90
2019-03-05T09:24:19.356Z,83.83
2019-03-05T09:26:51.603Z,85.03
2019-03-05T09:29:20.026Z,85.63
2019-03-05T09:31:49.361Z,85.55
2019-03-05T09:34:18.713Z,84.94
2019-03-05T09:36:51.197Z,85.62
2019-03-05T09:39:19.341Z,84.83
2019-03-05T09:41:48.686Z,83.77
2019-03-05T09:44:18.246Z,84.85
2019-03-05T09:46:47.592Z,85.01
2019-03-05T09:49:16.932Z,84.46
2019-03-05T09:51:46.408Z,85.51
2019-03-05T09:54:15.665Z,83.90
2019-03-05T09:56:44.999Z,84.60
2019-03-05T09:59:14.475Z,85.07
2019-03-05T10:01:43.784Z,85.05
2019-03-05T10:04:13.042Z,85.00
2019-03-05T10:06:42.709Z,83.63
2019-03-05T10:09:12.076Z,84.50
2019-03-05T10:11:41.347Z,83.60
2019-03-05T10:14:10.894Z,84.43
2019-03-05T10:16:40.204Z,84.53
2019-03-05T10:19:09.513Z,84.39
2019-03-05T10:21:46.268Z,83.87
2019-03-05T10:24:11.082Z,83.44
2019-03-05T10:26:40.540Z,84.84
2019-03-05T10:29:09.884Z,84.55
2019-03-05T10:31:39.214Z,85.11
2019-03-05T10:34:08.661Z,85.15
2019-03-05T10:36:38.027Z,85.61
2019-03-05T10:39:30.516Z,86.27
2019-03-05T10:41:56.570Z,86.67
2019-03-05T10:44:26.020Z,85.50
2019-03-05T10:46:56.231Z,84.60
2019-03-05T10:49:25.834Z,85.02
2019-03-05T10:51:55.320Z,85.91
2019-03-05T10:54:24.615Z,85.06
2019-03-05T10:56:54.032Z,84.38
2019-03-05T10:59:23.579Z,84.50
2019-03-05T11:01:52.900Z,84.95
2019-03-05T11:04:22.511Z,85.78
2019-03-05T11:06:52.144Z,85.07
2019-03-05T11:09:21.876Z,84.37
2019-03-05T11:11:51.180Z,85.85
2019-03-05T11:14:20.700Z,84.85
2019-03-05T11:16:50.145Z,85.11
2019-03-05T11:19:19.760Z,84.97
2019-03-05T11:21:49.168Z,84.65
2019-03-05T11:24:18.632Z,83.62
2019-03-05T11:26:47.903Z,84.95
2019-03-05T11:29:17.377Z,84.79
2019-03-05T11:31:46.690Z,84.83
2019-03-05T11:34:16.018Z,84.93
2019-03-05T11:36:45.538Z,86.12
2019-03-05T11:39:15.025Z,84.93
2019-03-05T11:41:44.360Z,85.24
2019-03-05T11:44:13.809Z,85.48
2019-03-05T11:46:43.214Z,84.97
2019-03-05T11:49:12.508Z,84.61
2019-03-05T11:51:41.959Z,85.07
2019-03-05T11:54:11.268Z,84.59
2019-03-05T11:56:40.669Z,85.43
2019-03-05T11:59:10.132Z,85.44
2019-03-05T12:01:42.760Z,84.90
2019-03-05T12:04:12.246Z,84.59
2019-03-05T12:06:41.522Z,85.04
2019-03-05T12:09:10.864Z,85.31
2019-03-05T12:11:40.280Z,84.66
2019-03-05T12:14:09.549Z,83.63
2019-03-05T12:16:41.531Z,83.38
2019-03-05T12:19:10.189Z,83.95
2019-03-05T12:21:39.531Z,84.24
2019-03-05T12:24:08.793Z,83.79
2019-03-05T12:26:38.292Z,83.44
2019-03-05T12:29:07.578Z,83.30
2019-03-05T12:31:36.847Z,83.49
2019-03-05T12:34:06.339Z,84.02
2019-03-05T12:36:35.641Z,82.50
2019-03-05T12:39:05.589Z,82.78
2019-03-05T12:41:34.939Z,82.91
2019-03-05T12:44:05.374Z,82.17
2019-03-05T12:46:34.802Z,82.75
2019-03-05T12:49:04.227Z,83.40
2019-03-05T12:51:33.541Z,83.10
2019-03-05T12:54:02.787Z,83.53
2019-03-05T12:56:32.245Z,83.52
2019-03-05T12:59:01.576Z,83.58
2019-03-05T13:01:30.863Z,84.41
2019-03-05T13:04:00.327Z,84.13
2019-03-05T13:06:29.652Z,85.78
2019-03-05T13:08:58.991Z,84.49
2019-03-05T13:11:28.513Z,84.44
2019-03-05T13:14:06.044Z,85.25
2019-03-05T13:16:29.028Z,86.85
2019-03-05T13:18:58.514Z,89.45
2019-03-05T13:21:28.502Z,89.06
2019-03-05T13:23:57.898Z,89.98
2019-03-05T13:26:27.247Z,89.36
2019-03-05T13:28:56.521Z,89.90
2019-03-05T13:31:25.787Z,90.45
2019-03-05T13:33:55.093Z,90.27
2019-03-05T13:36:24.407Z,90.14
2019-03-05T13:38:53.828Z,89.87
2019-03-05T13:41:23.096Z,90.44
2019-03-05T13:43:55.486Z,90.25
2019-03-05T13:46:25.869Z,90.45
2019-03-05T13:49:40.255Z,90.96
2019-03-05T13:52:36.073Z,91.07
2019-03-05T13:55:17.781Z,91.02
2019-03-05T13:58:00.859Z,90.43
2019-03-05T14:00:30.200Z,91.05
2019-03-05T14:03:01.166Z,90.97
2019-03-05T14:06:14.649Z,91.37
2019-03-05T14:09:12.314Z,90.97
2019-03-05T14:11:41.988Z,91.40
2019-03-05T14:14:15.730Z,90.57
2019-03-05T14:16:45.608Z,90.96
2019-03-05T14:19:14.980Z,91.34
2019-03-05T14:21:44.372Z,91.44
2019-03-05T14:24:13.969Z,91.14
2019-03-05T14:26:43.281Z,90.96
2019-03-05T14:29:12.569Z,91.21
2019-03-05T14:31:42.126Z,91.82
2019-03-05T14:34:11.453Z,91.81
2019-03-05T14:36:40.780Z,91.12
2019-03-05T14:39:27.931Z,91.33
2019-03-05T14:41:57.316Z,91.46
2019-03-05T14:44:26.721Z,92.04
2019-03-05T14:46:57.706Z,91.35
2019-03-05T14:49:27.313Z,91.65
2019-03-05T14:51:56.563Z,92.12
2019-03-05T14:54:25.912Z,91.84
2019-03-05T14:56:55.211Z,91.51
2019-03-05T14:59:24.561Z,90.76
2019-03-05T15:01:53.919Z,91.37
2019-03-05T15:04:23.216Z,91.90
2019-03-05T15:06:52.607Z,92.04
2019-03-05T15:09:22.148Z,91.42
2019-03-05T15:11:51.447Z,91.85
2019-03-05T15:14:20.749Z,92.38
2019-03-05T15:16:50.127Z,92.58
2019-03-05T15:19:21.665Z,92.26
2019-03-05T15:21:50.555Z,92.52
2019-03-05T15:24:20.089Z,92.92
2019-03-05T15:26:49.338Z,92.77
2019-03-05T15:29:18.635Z,92.09
2019-03-05T15:31:48.145Z,91.88
2019-03-05T15:34:17.418Z,92.65
2019-03-05T15:36:46.750Z,92.54
2019-03-05T15:39:16.153Z,92.64
2019-03-05T15:41:46.284Z,92.77
2019-03-05T15:44:15.769Z,92.89
2019-03-05T15:46:45.250Z,92.70
2019-03-05T15:49:14.566Z,92.49
2019-03-05T15:51:43.846Z,92.26
2019-03-05T15:54:13.268Z,92.89
2019-03-05T15:56:42.623Z,92.98
2019-03-05T15:59:12.064Z,92.71
2019-03-05T16:01:41.437Z,92.29
2019-03-05T16:04:10.781Z,92.70
2019-03-05T16:06:40.114Z,92.94
2019-03-05T16:09:19.029Z,92.14
2019-03-05T16:11:48.327Z,92.65
2019-03-05T16:14:17.584Z,92.80
2019-03-05T16:16:47.004Z,93.02
2019-03-05T16:19:17.735Z,93.31
2019-03-05T16:21:47.233Z,93.55
2019-03-05T16:24:16.569Z,93.25
2019-03-05T16:26:45.865Z,93.18
2019-03-05T16:29:16.206Z,93.19
2019-03-05T16:32:01.564Z,93.67
2019-03-05T16:34:45.885Z,93.43
2019-03-05T16:37:22.333Z,93.24
2019-03-05T16:40:08.945Z,93.51
2019-03-05T16:42:53.185Z,93.25
2019-03-05T16:45:47.408Z,93.90
2019-03-05T16:48:29.802Z,93.56
2019-03-05T16:51:18.082Z,93.47
2019-03-05T16:53:58.166Z,93.53
2019-03-05T16:56:35.484Z,93.21
2019-03-05T16:59:35.665Z,93.61
2019-03-05T17:02:18.382Z,93.94
2019-03-05T17:05:22.388Z,93.85
2019-03-05T17:08:03.059Z,94.00
2019-03-05T17:10:57.501Z,93.71
2019-03-05T17:13:26.802Z,93.69
2019-03-05T17:15:56.096Z,93.63
2019-03-05T17:18:25.770Z,93.77
2019-03-05T17:20:55.265Z,93.94
2019-03-05T17:23:24.518Z,94.20
2019-03-05T17:25:53.940Z,93.89
2019-03-05T17:28:23.262Z,93.80
2019-03-05T17:30:52.538Z,93.98
2019-03-05T17:33:22.104Z,94.10
2019-03-05T17:35:51.397Z,94.13
2019-03-05T17:38:20.693Z,94.23
2019-03-05T17:40:49.990Z,94.62
2019-03-05T17:43:19.309Z,94.73
2019-03-05T17:45:48.621Z,94.82
2019-03-05T17:48:17.953Z,94.69
2019-03-05T17:50:47.240Z,94.80
2019-03-05T17:53:16.519Z,94.74
2019-03-05T17:55:46.023Z,94.85
2019-03-05T17:58:15.331Z,94.39
2019-03-05T18:00:45.452Z,94.68
2019-03-05T18:03:14.909Z,94.97
2019-03-05T18:05:44.178Z,95.05
2019-03-05T18:08:13.517Z,94.94
2019-03-05T18:10:42.992Z,95.05
2019-03-05T18:13:12.277Z,95.06
2019-03-05T18:15:41.586Z,95.21
2019-03-05T18:18:11.011Z,95.31
2019-03-05T18:20:40.303Z,95.20
2019-03-05T18:23:09.631Z,95.21
2019-03-05T18:25:39.043Z,95.20
2019-03-05T18:28:08.307Z,95.29
2019-03-05T18:30:37.590Z,95.31
2019-03-05T18:33:06.992Z,95.30
2019-03-05T18:35:36.336Z,95.11
2019-03-05T18:38:05.759Z,95.31
2019-03-05T18:40:35.244Z,94.75
2019-03-05T18:43:04.820Z,94.84
2019-03-05T18:45:34.244Z,94.85
2019-03-05T18:48:03.798Z,94.72
2019-03-05T18:50:33.096Z,94.69
2019-03-05T18:53:02.389Z,94.59
2019-03-05T18:55:32.112Z,94.62
2019-03-05T18:58:01.443Z,94.68
2019-03-05T19:00:30.782Z,94.67
2019-03-05T19:03:00.352Z,94.29
2019-03-05T19:05:29.674Z,94.03
2019-03-05T19:07:59.016Z,93.58
2019-03-05T19:10:28.595Z,94.02
2019-03-05T19:12:57.913Z,94.37
2019-03-05T19:15:27.329Z,94.40
2019-03-05T19:17:56.838Z,94.13
2019-03-05T19:20:26.285Z,94.00
2019-03-05T19:22:55.693Z,93.92
2019-03-05T19:25:26.762Z,94.04
2019-03-05T19:27:56.124Z,94.05
2019-03-05T19:30:31.243Z,94.04
2019-03-05T19:33:00.536Z,93.93
2019-03-05T19:35:29.932Z,93.91
2019-03-05T19:37:59.442Z,93.98
2019-03-05T19:40:30.897Z,93.09
2019-03-05T19:43:00.260Z,93.34
2019-03-05T19:45:29.583Z,93.60
2019-03-05T19:47:58.931Z,93.75
2019-03-05T19:50:28.306Z,93.69
2019-03-05T19:52:57.801Z,93.58
2019-03-05T19:55:27.105Z,93.77
2019-03-05T19:58:08.486Z,92.92
2019-03-05T20:00:42.327Z,92.82
2019-03-05T20:03:11.747Z,93.18
2019-03-05T20:05:41.145Z,92.87
2019-03-05T20:08:10.449Z,93.58
2019-03-05T20:10:40.011Z,93.58
2019-03-05T20:13:09.367Z,93.12
2019-03-05T20:15:38.774Z,93.18
2019-03-05T20:18:08.133Z,92.86
2019-03-05T20:20:37.465Z,92.91
2019-03-05T20:23:06.921Z,93.60
2019-03-05T20:25:36.560Z,93.53
2019-03-05T20:28:05.873Z,93.07
2019-03-05T20:30:35.369Z,92.88
2019-03-05T20:33:04.954Z,93.05
2019-03-05T20:35:34.290Z,93.20
2019-03-05T20:38:05.191Z,93.09
2019-03-05T20:40:34.545Z,92.59
2019-03-05T20:43:03.950Z,92.48
2019-03-05T20:45:33.312Z,92.54
2019-03-05T20:48:02.745Z,92.63
2019-03-05T20:50:32.314Z,93.10
2019-03-05T20:53:01.727Z,92.48
2019-03-05T20:55:31.245Z,92.64
2019-03-05T20:58:00.625Z,92.61
2019-03-05T21:00:31.427Z,91.87
2019-03-05T21:03:02.699Z,91.77
2019-03-05T21:05:34.116Z,91.93
2019-03-05T21:08:03.484Z,92.50
2019-03-05T21:10:32.831Z,92.47
2019-03-05T21:13:02.857Z,92.09
2019-03-05T21:15:32.677Z,92.32
2019-03-05T21:18:02.438Z,92.39
2019-03-05T21:20:31.778Z,92.50
2019-03-05T21:23:01.039Z,92.32
2019-03-05T21:25:30.713Z,92.55
2019-03-05T21:28:00.104Z,92.55
2019-03-05T21:30:29.503Z,92.20
2019-03-05T21:32:58.766Z,91.77
2019-03-05T21:35:28.064Z,91.93
2019-03-05T21:37:57.874Z,92.60
2019-03-05T21:40:27.405Z,92.43
2019-03-05T21:42:56.660Z,92.59
2019-03-05T21:45:29.277Z,93.03
2019-03-05T21:47:58.625Z,93.18
2019-03-05T21:50:27.908Z,93.30
2019-03-05T21:52:57.392Z,93.44
2019-03-05T21:55:26.713Z,93.47
2019-03-05T21:57:56.065Z,93.21
2019-03-05T22:00:27.573Z,92.95
2019-03-05T22:02:57.400Z,93.14
2019-03-05T22:05:26.702Z,93.51
2019-03-05T22:07:56.177Z,93.19
2019-03-05T22:10:25.806Z,93.36
2019-03-05T22:12:55.143Z,93.06
2019-03-05T22:15:24.734Z,93.43
2019-03-05T22:17:54.041Z,93.25
2019-03-05T22:20:23.760Z,93.29
2019-03-05T22:22:53.133Z,93.56
2019-03-05T22:25:22.470Z,93.92
2019-03-05T22:27:51.786Z,94.12
2019-03-05T22:30:23.309Z,94.16
2019-03-05T22:32:52.648Z,94.36
2019-03-05T22:35:22.229Z,94.27
2019-03-05T22:37:51.583Z,94.48
2019-03-05T22:40:20.974Z,94.87
2019-03-05T22:42:50.382Z,94.97
2019-03-05T22:45:21.315Z,94.84
2019-03-05T22:47:50.759Z,94.98
2019-03-05T22:50:20.069Z,95.16
2019-03-05T22:52:49.593Z,94.54
2019-03-05T22:55:18.988Z,94.06
2019-03-05T22:57:48.347Z,94.08
2019-03-05T23:00:31.977Z,94.10
2019-03-05T23:03:01.690Z,94.49
2019-03-05T23:05:31.759Z,94.27
2019-03-05T23:08:02.255Z,94.46
2019-03-05T23:10:31.793Z,94.60
2019-03-05T23:13:01.101Z,94.82
2019-03-05T23:15:30.469Z,94.84
2019-03-05T23:17:59.866Z,94.64
2019-03-05T23:20:29.393Z,94.42
2019-03-05T23:22:58.934Z,94.37
2019-03-05T23:25:28.688Z,94.66
2019-03-05T23:27:58.019Z,93.81
2019-03-05T23:30:27.766Z,93.71
2019-03-05T23:32:57.226Z,93.67
2019-03-05T23:35:26.488Z,93.83
2019-03-05T23:37:56.189Z,93.96
2019-03-05T23:40:25.488Z,93.82
2019-03-05T23:42:54.874Z,93.95
2019-03-05T23:45:24.412Z,93.53
2019-03-05T23:47:53.785Z,93.10
2019-03-05T23:50:23.067Z,93.45
2019-03-05T23:52:52.542Z,93.11
2019-03-05T23:55:21.839Z,93.22
2019-03-05T23:57:51.093Z,93.57
